createdAt,value
2018-09-15T00:46:46.630Z,66.66
2018-09-15T00:49:14.275Z,66.91
2018-09-15T00:51:42.438Z,66.38
2018-09-15T00:54:14.052Z,66.08
2018-09-15T00:59:16.305Z,65.50
2018-09-15T01:01:44.018Z,66.05
2018-09-15T01:04:11.914Z,65.95
2018-09-15T01:06:39.447Z,66.21
2018-09-15T01:09:09.387Z,66.11
2018-09-15T01:11:38.402Z,65.54
2018-09-15T01:14:07.781Z,65.31
2018-09-15T01:16:36.618Z,65.07
2018-09-15T01:19:05.765Z,64.96
2018-09-15T01:21:35.284Z,65.88
2018-09-15T01:24:03.781Z,66.03
2018-09-15T01:26:34.958Z,66.08
2018-09-15T01:29:05.995Z,65.94
2018-09-15T01:31:36.214Z,65.82
2018-09-15T01:34:05.687Z,67.36
2018-09-15T01:36:36.430Z,67.25
2018-09-15T01:39:08.565Z,66.91
2018-09-15T01:41:36.098Z,66.63
2018-09-15T01:44:03.801Z,66.00
2018-09-15T01:46:34.719Z,65.96
2018-09-15T01:49:04.452Z,66.23
2018-09-15T01:51:33.286Z,68.34
2018-09-15T01:54:02.913Z,67.44
2018-09-15T01:56:31.513Z,68.41
2018-09-15T01:59:00.320Z,67.93
2018-09-15T02:01:27.542Z,68.40
2018-09-15T02:11:30.973Z,67.11
2018-09-15T02:13:59.540Z,66.70
2018-09-15T02:16:30.123Z,66.60
2018-09-15T02:19:00.011Z,66.45
2018-09-15T02:21:26.980Z,67.19
2018-09-15T02:23:56.544Z,67.35
2018-09-15T02:31:29.908Z,68.36
2018-09-15T02:33:58.269Z,68.41
2018-09-15T02:38:57.923Z,68.66
2018-09-15T02:44:01.659Z,67.72
2018-09-15T02:46:29.851Z,67.23
2018-09-15T02:48:58.334Z,68.02
2018-09-15T02:54:02.554Z,67.64
2018-09-15T02:56:33.010Z,68.55
2018-09-15T02:59:01.269Z,68.22
2018-09-15T03:01:29.505Z,69.14
2018-09-15T03:06:28.899Z,69.45
2018-09-15T03:08:57.660Z,68.54
2018-09-15T03:11:31.145Z,68.10
2018-09-15T03:13:57.831Z,67.03
2018-09-15T03:16:28.223Z,66.31
2018-09-15T03:18:55.505Z,67.94
2018-09-15T03:21:22.435Z,68.00
2018-09-15T03:23:52.274Z,68.36
2018-09-15T03:26:21.946Z,68.33
2018-09-15T03:28:48.712Z,67.80
2018-09-15T03:31:15.756Z,68.60
2018-09-15T03:36:15.421Z,67.49
2018-09-15T03:38:44.408Z,68.05
2018-09-15T03:41:12.870Z,68.43
2018-09-15T03:43:42.097Z,68.78
2018-09-15T03:46:10.455Z,69.35
2018-09-15T03:48:38.650Z,69.32
2018-09-15T03:51:06.827Z,69.15
2018-09-15T03:53:36.793Z,68.88
2018-09-15T03:56:04.414Z,68.50
2018-09-15T03:58:32.220Z,68.00
2018-09-15T04:01:00.596Z,67.61
2018-09-15T04:03:28.945Z,66.53
2018-09-15T04:05:56.383Z,66.71
2018-09-15T04:08:29.067Z,66.16
2018-09-15T04:10:56.740Z,66.77
2018-09-15T04:13:27.110Z,66.11
2018-09-15T04:15:55.225Z,66.93
2018-09-15T04:18:24.956Z,66.29
2018-09-15T04:20:53.810Z,66.32
2018-09-15T04:23:21.959Z,66.70
2018-09-15T04:25:50.515Z,66.69
2018-09-15T04:28:18.406Z,67.44
2018-09-15T04:30:46.660Z,67.63
2018-09-15T04:33:13.381Z,67.80
2018-09-15T04:35:40.743Z,69.19
2018-09-15T04:38:08.452Z,69.26
2018-09-15T04:40:41.169Z,67.86
2018-09-15T04:43:08.957Z,67.77
2018-09-15T04:45:38.236Z,67.47
2018-09-15T04:48:05.563Z,68.01
2018-09-15T04:50:33.329Z,68.33
2018-09-15T04:53:01.782Z,67.33
2018-09-15T04:58:04.529Z,67.68
2018-09-15T05:00:31.950Z,67.21
2018-09-15T05:03:00.922Z,67.29
2018-09-15T05:05:28.427Z,67.22
2018-09-15T05:07:57.745Z,67.31
2018-09-15T05:10:27.588Z,67.51
2018-09-15T05:12:56.569Z,66.27
2018-09-15T05:15:25.515Z,65.82
2018-09-15T05:17:59.030Z,66.46
2018-09-15T05:20:26.931Z,67.09
2018-09-15T05:22:55.118Z,66.68
2018-09-15T05:25:23.405Z,67.11
2018-09-15T05:27:52.555Z,66.81
2018-09-15T05:30:19.904Z,67.41
2018-09-15T05:32:48.008Z,67.84
2018-09-15T05:35:15.614Z,66.64
2018-09-15T05:37:43.394Z,66.10
2018-09-15T05:40:12.061Z,66.10
2018-09-15T05:42:42.490Z,65.68
2018-09-15T05:45:10.546Z,65.80
2018-09-15T05:47:37.546Z,66.09
2018-09-15T05:50:06.615Z,65.97
2018-09-15T05:52:35.759Z,65.76
2018-09-15T05:55:05.675Z,65.78
2018-09-15T05:57:37.428Z,66.22
2018-09-15T06:00:05.409Z,66.37
2018-09-15T06:02:35.448Z,66.55
2018-09-15T06:10:16.332Z,64.24
2018-09-15T06:12:48.202Z,65.15
2018-09-15T06:15:17.749Z,64.76
2018-09-15T06:20:25.322Z,63.63
2018-09-15T06:28:05.705Z,64.28
2018-09-15T06:30:34.808Z,63.39
2018-09-15T06:33:04.081Z,63.34
2018-09-15T06:35:31.751Z,62.61
2018-09-15T06:38:00.088Z,60.81
2018-09-15T06:40:29.801Z,61.20
2018-09-15T06:43:02.166Z,61.48
2018-09-15T06:45:31.043Z,60.77
2018-09-15T06:48:01.404Z,60.69
2018-09-15T06:50:30.673Z,61.96
2018-09-15T06:53:03.200Z,60.66
2018-09-15T06:55:33.474Z,59.75
2018-09-15T06:58:03.206Z,59.95
2018-09-15T07:00:30.558Z,59.26
2018-09-15T07:02:59.437Z,60.41
2018-09-15T07:05:31.742Z,59.67
2018-09-15T07:08:01.059Z,60.22
2018-09-15T07:10:29.652Z,58.57
2018-09-15T07:13:00.295Z,57.78
2018-09-15T07:18:00.167Z,58.85
2018-09-15T07:20:33.056Z,57.75
2018-09-15T07:23:06.658Z,57.94
2018-09-15T07:25:38.001Z,58.54
2018-09-15T07:30:41.262Z,57.92
2018-09-15T07:33:11.258Z,57.57
2018-09-15T07:35:39.373Z,57.55
2018-09-15T07:38:08.252Z,56.27
2018-09-15T07:43:09.517Z,57.33
2018-09-15T07:45:37.703Z,57.51
2018-09-15T07:48:06.785Z,56.11
2018-09-15T07:50:36.053Z,57.15
2018-09-15T07:53:07.287Z,54.89
2018-09-15T07:55:35.041Z,55.74
2018-09-15T07:58:05.343Z,54.50
2018-09-15T08:00:35.060Z,54.62
2018-09-15T08:03:03.240Z,53.14
2018-09-15T08:05:31.208Z,54.24
2018-09-15T08:07:58.697Z,53.35
2018-09-15T08:13:03.927Z,54.06
2018-09-15T08:15:34.121Z,54.01
2018-09-15T08:18:02.609Z,53.86
2018-09-15T08:20:33.068Z,52.34
2018-09-15T08:23:00.927Z,52.31
2018-09-15T08:25:29.677Z,52.70
2018-09-15T08:30:29.779Z,50.80
2018-09-15T08:32:58.296Z,50.77
2018-09-15T08:35:28.070Z,50.96
2018-09-15T08:37:54.660Z,49.36
2018-09-15T08:40:23.917Z,50.76
2018-09-15T08:42:57.797Z,51.27
2018-09-15T08:48:00.934Z,51.32
2018-09-15T08:50:32.994Z,51.39
2018-09-15T08:53:00.660Z,49.50
2018-09-15T08:55:31.535Z,49.24
2018-09-15T08:58:02.412Z,47.60
2018-09-15T09:00:31.295Z,49.40
2018-09-15T09:03:01.775Z,49.11
2018-09-15T09:05:34.914Z,48.33
2018-09-15T09:08:03.034Z,48.19
2018-09-15T09:10:31.800Z,47.86
2018-09-15T09:13:04.151Z,47.54
2018-09-15T09:20:50.697Z,44.92
2018-09-15T09:23:23.514Z,44.58
2018-09-15T09:25:55.635Z,43.92
2018-09-15T09:28:23.681Z,44.52
2018-09-15T09:33:31.117Z,44.84
2018-09-15T09:35:59.238Z,42.75
2018-09-15T09:38:27.891Z,44.02
2018-09-15T09:40:56.533Z,44.88
2018-09-15T09:46:04.484Z,42.84
2018-09-15T09:48:32.976Z,44.26
2018-09-15T09:51:06.517Z,42.37
2018-09-15T09:56:08.642Z,40.36
2018-09-15T09:58:35.700Z,40.30
2018-09-15T10:01:04.523Z,39.21
2018-09-15T10:11:32.867Z,39.44
2018-09-15T10:14:04.861Z,42.52
2018-09-15T10:19:08.258Z,41.82
2018-09-15T10:21:38.107Z,42.81
2018-09-15T10:26:46.981Z,40.42
2018-09-15T10:29:15.057Z,41.14
2018-09-15T10:31:42.857Z,39.66
2018-09-15T10:36:50.393Z,40.83
2018-09-15T10:41:49.817Z,41.80
2018-09-15T10:44:18.647Z,44.30
2018-09-15T10:46:47.646Z,43.17
2018-09-15T10:49:15.385Z,43.48
2018-09-15T10:51:48.784Z,42.21
2018-09-15T10:56:51.632Z,41.16
2018-09-15T10:59:20.532Z,40.39
2018-09-15T11:01:48.056Z,41.59
2018-09-15T11:04:16.487Z,41.77
2018-09-15T11:06:47.406Z,43.00
2018-09-15T11:11:52.473Z,43.88
2018-09-15T11:14:20.065Z,43.87
2018-09-15T11:16:47.926Z,43.38
2018-09-15T11:19:15.788Z,43.07
2018-09-15T11:21:43.371Z,43.61
2018-09-15T11:24:11.962Z,44.52
2018-09-15T11:26:41.897Z,43.25
2018-09-15T11:29:09.797Z,42.25
2018-09-15T11:31:38.386Z,41.65
2018-09-15T11:34:09.942Z,41.16
2018-09-15T11:36:38.111Z,42.28
2018-09-15T11:39:06.430Z,43.96
2018-09-15T11:41:34.552Z,44.19
2018-09-15T11:44:01.931Z,43.37
2018-09-15T11:46:34.249Z,39.77
2018-09-15T11:49:03.396Z,41.74
2018-09-15T11:51:30.899Z,39.74
2018-09-15T11:54:00.231Z,40.34
2018-09-15T11:56:31.120Z,41.47
2018-09-15T11:59:03.862Z,40.79
2018-09-15T12:01:35.165Z,39.75
2018-09-15T12:04:08.320Z,41.75
2018-09-15T12:11:48.032Z,38.32
2018-09-15T12:14:17.510Z,39.00
2018-09-15T12:16:45.275Z,38.43
2018-09-15T12:19:12.436Z,38.90
2018-09-15T12:21:40.714Z,39.81
2018-09-15T12:24:08.757Z,41.02
2018-09-15T12:26:38.702Z,40.08
2018-09-15T12:29:11.073Z,41.29
2018-09-15T12:31:40.610Z,40.64
2018-09-15T12:36:50.679Z,39.97
2018-09-15T12:41:58.483Z,38.71
2018-09-15T12:44:27.606Z,40.21
2018-09-15T12:49:28.858Z,38.82
2018-09-15T12:54:34.369Z,37.73
2018-09-15T12:59:36.350Z,37.74
2018-09-15T13:02:08.312Z,38.92
2018-09-15T13:04:35.123Z,38.03
2018-09-15T13:09:42.698Z,38.33
2018-09-15T13:12:11.786Z,38.94
2018-09-15T13:17:17.052Z,38.31
2018-09-15T13:19:50.872Z,38.22
2018-09-15T13:27:26.376Z,36.66
2018-09-15T13:29:54.414Z,37.10
2018-09-15T13:39:56.531Z,35.80
2018-09-15T13:42:27.430Z,36.97
2018-09-15T13:44:59.699Z,35.50
2018-09-15T13:52:30.594Z,34.58
2018-09-15T14:00:11.531Z,34.63
2018-09-15T14:02:43.254Z,34.25
2018-09-15T14:10:30.831Z,33.76
2018-09-15T14:18:04.151Z,35.03
2018-09-15T14:20:33.781Z,34.91
2018-09-15T14:23:01.882Z,34.42
2018-09-15T14:25:31.173Z,35.14
2018-09-15T14:30:57.282Z,33.99
2018-09-15T14:36:01.968Z,33.72
2018-09-15T14:38:29.546Z,32.89
2018-09-15T14:43:29.179Z,34.16
2018-09-15T14:51:20.702Z,35.08
2018-09-15T14:53:50.924Z,34.79
2018-09-15T14:56:21.826Z,34.45
2018-09-15T14:58:49.857Z,33.54
2018-09-15T15:04:11.429Z,32.59
2018-09-15T15:06:47.415Z,32.79
2018-09-15T15:19:37.833Z,31.23
2018-09-15T15:30:09.806Z,33.49
2018-09-15T15:32:38.808Z,32.61
2018-09-15T15:38:02.625Z,33.41
2018-09-15T15:40:32.741Z,33.05
2018-09-15T15:45:42.234Z,34.39
2018-09-15T15:50:43.798Z,32.79
2018-09-15T15:53:12.957Z,34.51
2018-09-15T16:00:47.120Z,34.75
2018-09-15T16:03:14.528Z,34.84
2018-09-15T16:05:43.098Z,35.48
2018-09-15T16:08:13.684Z,36.18
2018-09-15T16:13:25.337Z,36.52
2018-09-15T16:16:05.623Z,37.72
2018-09-15T16:18:34.902Z,38.48
2018-09-15T16:21:01.993Z,40.16
2018-09-15T16:23:30.947Z,41.80
2018-09-15T16:25:58.056Z,42.79
2018-09-15T16:28:25.271Z,42.67
2018-09-15T16:30:52.521Z,43.46
2018-09-15T16:33:20.276Z,43.67
2018-09-15T16:41:03.999Z,45.44
2018-09-15T16:43:35.847Z,45.57
2018-09-15T16:53:48.945Z,47.02
2018-09-15T16:56:17.871Z,47.55
2018-09-15T16:58:47.413Z,47.33
2018-09-15T17:01:14.394Z,47.36
2018-09-15T17:06:17.614Z,48.36
2018-09-15T17:08:45.054Z,48.24
2018-09-15T17:11:12.515Z,49.66
2018-09-15T17:16:17.497Z,50.15
2018-09-15T17:18:48.599Z,50.10
2018-09-15T17:23:47.382Z,50.56
2018-09-15T17:26:16.975Z,50.56
2018-09-15T17:28:47.608Z,51.83
2018-09-15T17:31:15.429Z,51.50
2018-09-15T17:33:43.052Z,52.40
2018-09-15T17:36:10.343Z,52.76
2018-09-15T17:38:39.178Z,53.10
2018-09-15T17:43:41.746Z,53.59
2018-09-15T17:46:11.933Z,54.31
2018-09-15T17:48:39.072Z,53.47
2018-09-15T17:51:07.285Z,53.71
2018-09-15T17:53:35.761Z,54.21
2018-09-15T17:56:05.990Z,54.50
2018-09-15T17:58:33.999Z,54.71
2018-09-15T18:01:03.632Z,54.65
2018-09-15T18:03:32.008Z,54.38
2018-09-15T18:05:59.617Z,54.83
2018-09-15T18:08:28.517Z,54.81
2018-09-15T18:13:29.604Z,55.53
2018-09-15T18:15:58.292Z,55.62
2018-09-15T18:18:26.621Z,55.28
2018-09-15T18:20:55.327Z,54.93
2018-09-15T18:23:26.478Z,55.18
2018-09-15T18:25:57.234Z,55.27
2018-09-15T18:28:28.862Z,55.05
2018-09-15T18:30:59.002Z,55.64
2018-09-15T18:33:27.252Z,56.04
2018-09-15T18:35:55.431Z,56.35
2018-09-15T18:38:23.860Z,56.68
2018-09-15T18:40:53.773Z,57.79
2018-09-15T18:43:26.449Z,58.24
2018-09-15T18:45:55.801Z,58.00
2018-09-15T18:50:57.678Z,58.06
2018-09-15T18:53:28.495Z,56.81
2018-09-15T18:55:57.276Z,56.86
2018-09-15T18:58:26.948Z,56.04
2018-09-15T19:00:55.901Z,56.73
2018-09-15T19:03:27.882Z,56.79
2018-09-15T19:05:56.364Z,56.61
2018-09-15T19:08:26.034Z,57.15
2018-09-15T19:10:53.394Z,57.06
2018-09-15T19:13:21.296Z,56.57
2018-09-15T19:18:24.820Z,57.96
2018-09-15T19:20:56.295Z,57.64
2018-09-15T19:25:58.751Z,57.68
2018-09-15T19:28:28.853Z,58.38
2018-09-15T19:30:57.519Z,58.57
2018-09-15T19:33:25.544Z,58.57
2018-09-15T19:38:27.383Z,58.06
2018-09-15T19:40:57.867Z,57.98
2018-09-15T19:43:28.080Z,58.57
2018-09-15T19:45:59.508Z,59.26
2018-09-15T19:48:26.499Z,59.46
2018-09-15T19:50:56.682Z,59.97
2018-09-15T19:53:26.667Z,59.47
2018-09-15T19:55:55.453Z,59.75
2018-09-15T19:58:22.918Z,59.94
2018-09-15T20:00:55.958Z,59.88
2018-09-15T20:03:23.486Z,59.99
2018-09-15T20:05:50.126Z,61.11
2018-09-15T20:10:51.355Z,61.31
2018-09-15T20:13:19.208Z,60.39
2018-09-15T20:15:47.454Z,60.24
2018-09-15T20:18:15.540Z,60.93
2018-09-15T20:20:43.656Z,61.16
2018-09-15T20:23:13.008Z,60.51
2018-09-15T20:25:46.090Z,60.90
2018-09-15T20:28:14.961Z,60.72
2018-09-15T20:33:14.557Z,61.29
2018-09-15T20:35:44.731Z,61.38
2018-09-15T20:38:14.972Z,61.82
2018-09-15T20:43:18.303Z,61.16
2018-09-15T20:45:47.983Z,60.66
2018-09-15T20:48:17.904Z,61.64
2018-09-15T20:50:44.682Z,60.90
2018-09-15T20:53:14.266Z,61.22
2018-09-15T20:55:43.325Z,61.24
2018-09-15T20:58:12.761Z,61.80
2018-09-15T21:00:43.605Z,62.14
2018-09-15T21:03:10.343Z,61.00
2018-09-15T21:05:38.973Z,60.87
2018-09-15T21:08:09.751Z,61.15
2018-09-15T21:10:37.951Z,61.72
2018-09-15T21:13:06.926Z,61.71
2018-09-15T21:20:42.371Z,60.76
2018-09-15T21:23:11.513Z,60.44
2018-09-15T21:25:38.552Z,61.39
2018-09-15T21:28:07.217Z,62.84
2018-09-15T21:30:36.642Z,62.67
2018-09-15T21:33:04.363Z,62.60
2018-09-15T21:35:32.729Z,61.21
2018-09-15T21:40:32.438Z,61.45
2018-09-15T21:43:01.303Z,62.00
2018-09-15T21:45:29.490Z,62.35
2018-09-15T21:47:59.590Z,61.56
2018-09-15T21:50:27.088Z,60.93
2018-09-15T21:52:56.138Z,60.52
2018-09-15T21:55:26.381Z,61.16
2018-09-15T21:57:59.485Z,60.36
2018-09-15T22:00:27.336Z,60.62
2018-09-15T22:02:56.885Z,60.93
2018-09-15T22:05:25.720Z,61.13
2018-09-15T22:07:54.755Z,61.25
2018-09-15T22:10:25.476Z,60.27
2018-09-15T22:12:55.738Z,60.25
2018-09-15T22:15:24.164Z,60.62
2018-09-15T22:17:51.784Z,60.76
2018-09-15T22:22:51.033Z,61.39
2018-09-15T22:27:48.880Z,61.41
2018-09-15T22:32:51.945Z,62.30
2018-09-15T22:35:21.593Z,61.71
2018-09-15T22:37:50.439Z,60.77
2018-09-15T22:40:20.560Z,60.78
2018-09-15T22:42:49.756Z,60.32
2018-09-15T22:45:19.835Z,61.09
2018-09-15T22:47:48.524Z,60.50
2018-09-15T22:50:22.782Z,60.78
2018-09-15T22:52:51.512Z,60.48
2018-09-15T22:55:21.566Z,60.35
2018-09-15T22:57:49.835Z,60.90
2018-09-15T23:00:20.136Z,61.58
2018-09-15T23:02:52.897Z,60.61
2018-09-15T23:05:21.098Z,61.75
2018-09-15T23:07:49.531Z,62.32
2018-09-15T23:12:49.172Z,62.28
2018-09-15T23:15:18.073Z,62.17
2018-09-15T23:17:47.152Z,62.46
2018-09-15T23:20:15.925Z,61.59
2018-09-15T23:22:44.582Z,61.37
2018-09-15T23:25:11.245Z,61.62
2018-09-15T23:27:43.071Z,61.25
2018-09-15T23:30:11.508Z,62.30
2018-09-15T23:32:40.053Z,63.21
2018-09-15T23:35:08.130Z,63.45
2018-09-15T23:37:36.308Z,62.70
2018-09-15T23:40:04.914Z,62.51
2018-09-15T23:42:32.332Z,63.28
2018-09-15T23:45:01.087Z,63.63
2018-09-15T23:47:29.340Z,62.45
2018-09-15T23:49:58.470Z,62.27
2018-09-15T23:52:26.967Z,62.50
2018-09-15T23:54:56.218Z,62.87
2018-09-15T23:57:25.884Z,62.73
2018-09-15T23:59:55.612Z,62.96
